»·PEaware :: N74KW L22-KTOA

N74KW :: L22-KTOA

FLIGHT INFORMATION

Flight Status: Arrived
Operator: Privately registered:
United States
More flights under this callsign
Pilot: Charles C. (26995)
Aircraft: MCDONNELL-DOUGLAS SKYTRAIN C-47
(DC3)
More flights by this aircraft type
Origin: L22 Yucca Valley
United States
Destination: KTOA Zamperini
United States
More flights between these airports :: More routes between these airports
Route: BARNES KBNG RAL PDZ PLANT SLI VPLVT
File this flight plan on PilotEdge
Remarks:
Altitude:
(Current/Filed)
6,500ft
Speed:
(Current/Filed)
150kts
Departed: 08-Aug-20 10:27 AM
Arrived: 08-Aug-20 11:11 AM
Distance/Time
Traveled:
98nm/0:43
Distance/Time
To Go:
Arrived

Flight Plot

Page will automatically refresh every two minutes.

Flight plan parsing failed; only flown route is shown


Map Options




Map Legend


Flown Route
Filed Route
Departure Airport
Arrival Airport
Navaid (VOR, NDB)
Fix

Horizontal Profiles

Position Reports

Time Latitude Longitude Heading Altitude Ground
Speed
08-Aug-20 10:22 34.128790 -116.407845 358 3223ft 0kts
08-Aug-20 10:23 34.129193 -116.407678 25 3222ft 10kts
08-Aug-20 10:24 34.131574 -116.401171 85 3210ft 12kts
08-Aug-20 10:25 34.131602 -116.401328 246 3210ft 12kts
08-Aug-20 10:26 34.123030 -116.427543 245 3561ft 113kts
08-Aug-20 10:27 34.102771 -116.456788 227 4233ft 114kts
08-Aug-20 10:28 34.075883 -116.478693 211 4833ft 120kts
08-Aug-20 10:29 34.050305 -116.503605 234 5414ft 117kts
08-Aug-20 10:30 34.023457 -116.526978 213 5924ft 122kts
08-Aug-20 10:31 33.997448 -116.553143 228 6400ft 122kts
08-Aug-20 10:32 33.968748 -116.581644 217 6448ft 150kts
08-Aug-20 10:33 33.932662 -116.610218 216 6405ft 154kts
08-Aug-20 10:34 33.898516 -116.641232 222 6359ft 150kts
08-Aug-20 10:35 33.888491 -116.687847 270 6483ft 144kts
08-Aug-20 10:36 33.889278 -116.736839 270 6505ft 147kts
08-Aug-20 10:37 33.890671 -116.786313 271 6529ft 148kts
08-Aug-20 10:38 33.892668 -116.836183 271 6554ft 149kts
08-Aug-20 10:39 33.895020 -116.886453 269 6579ft 151kts
08-Aug-20 10:40 33.896097 -116.936881 269 6940ft 140kts
08-Aug-20 10:41 33.897145 -116.979823 269 7816ft 123kts
08-Aug-20 10:42 33.898228 -117.020535 270 8503ft 121kts
08-Aug-20 10:43 33.899365 -117.060922 270 9143ft 121kts
08-Aug-20 10:44 33.900108 -117.109606 274 8541ft 171kts
08-Aug-20 10:45 33.912632 -117.162930 288 8631ft 163kts
08-Aug-20 10:46 33.927673 -117.213798 288 8651ft 161kts
08-Aug-20 10:47 33.942840 -117.264568 289 8670ft 161kts
08-Aug-20 10:48 33.956491 -117.317335 285 8576ft 165kts
08-Aug-20 10:49 33.959299 -117.371652 265 8575ft 162kts
08-Aug-20 10:50 33.950902 -117.424918 258 8576ft 161kts
08-Aug-20 10:51 33.939084 -117.477012 247 8578ft 161kts
08-Aug-20 10:52 33.920059 -117.526206 245 8578ft 161kts
08-Aug-20 10:53 33.905335 -117.577179 254 8491ft 162kts
08-Aug-20 10:54 33.891503 -117.633008 254 7833ft 180kts
08-Aug-20 10:55 33.875465 -117.690993 247 7242ft 183kts
08-Aug-20 10:56 33.858490 -117.748929 254 6685ft 183kts
08-Aug-20 10:58 33.847233 -117.808452 260 6140ft 182kts
08-Aug-20 10:59 33.841839 -117.869308 267 5601ft 182kts
08-Aug-20 11:00 33.842464 -117.930058 273 5073ft 181kts
08-Aug-20 11:01 33.848719 -117.988724 277 4560ft 181kts
08-Aug-20 11:02 33.825346 -118.039368 232 4192ft 172kts
08-Aug-20 11:03 33.799341 -118.086874 238 3925ft 168kts
08-Aug-20 11:04 33.773383 -118.133268 234 3644ft 167kts
08-Aug-20 11:05 33.746871 -118.179097 240 3365ft 167kts
08-Aug-20 11:06 33.724743 -118.230535 245 2702ft 183kts
08-Aug-20 11:07 33.734768 -118.285621 324 2000ft 185kts
08-Aug-20 11:08 33.776459 -118.286906 1 1708ft 122kts
08-Aug-20 11:09 33.788251 -118.317720 311 615ft 103kts
08-Aug-20 11:10 33.803602 -118.339022 303 101ft 50kts
08-Aug-20 11:11 33.804932 -118.346177 231 97ft 7kts
08-Aug-20 11:11 33.804662 -118.346248 118 98ft 0kts
08-Aug-20 11:13 33.804662 -118.346248 118 98ft 0kts
08-Aug-20 11:14 33.804662 -118.346248 118 98ft 0kts
08-Aug-20 11:14 33.804662 -118.346248 118 98ft 0kts
08-Aug-20 11:16 33.804662 -118.346248 118 98ft 0kts
08-Aug-20 11:17 33.804662 -118.346248 118 98ft 0kts
08-Aug-20 11:17 33.804662 -118.346248 118 98ft 0kts
08-Aug-20 11:18 33.804662 -118.346248 118 98ft 0kts
08-Aug-20 11:20 33.804662 -118.346248 118 98ft 0kts
08-Aug-20 11:20 33.804662 -118.346248 118 98ft 0kts
08-Aug-20 11:21 33.804662 -118.346248 118 98ft 0kts
08-Aug-20 11:22 33.804662 -118.346248 118 98ft 0kts
08-Aug-20 11:23 33.804662 -118.346248 118 98ft 0kts
08-Aug-20 11:24 33.804662 -118.346248 118 98ft 0kts

Navigation Log

Ident Type
Flight plan parsing failed, navigation log unavailable